Terminal Aerodrome Forecast
Issued by NWS Quad Cities IA IL

Home | Current Version | Previous Version | Text Only | Print | Product List | Glossary On
Versions: 1 2 3 4 5 6 7 8 9 10 11 12 13 14 15 16 17 18
000
FTUS43 KDVN 271720
TAFDBQ
TAF
KDBQ 271720Z 2718/2818 VRB04KT P6SM SCT015
      TEMPO 2718/2719 BKN020
     FM272100 12009KT P6SM VCSH BKN050
     FM280100 04006KT 6SM BR BKN035
     FM280900 34006KT 4SM BR VCSH BKN020
     FM281400 34008KT P6SM BKN120=

USA.gov is the U.S. government's official web portal to all federal, state and local government web resources and services.